sensor_id;sensor_type;location;lat;lon;timestamp;P1;durP1;ratioP1;P2;durP2;ratioP2
48859;SDS011;34679;51.436;-2.518;2023-07-31T00:02:05;4.95;;;1.30;;
48859;SDS011;34679;51.436;-2.518;2023-07-31T00:04:30;3.03;;;1.25;;
48859;SDS011;34679;51.436;-2.518;2023-07-31T00:06:56;1.70;;;1.20;;
48859;SDS011;34679;51.436;-2.518;2023-07-31T00:09:22;3.53;;;1.73;;
48859;SDS011;34679;51.436;-2.518;2023-07-31T00:11:47;2.10;;;1.30;;
48859;SDS011;34679;51.436;-2.518;2023-07-31T00:14:13;2.88;;;1.30;;
48859;SDS011;34679;51.436;-2.518;2023-07-31T00:16:39;2.05;;;1.00;;
48859;SDS011;34679;51.436;-2.518;2023-07-31T00:19:04;2.88;;;1.10;;
48859;SDS011;34679;51.436;-2.518;2023-07-31T00:21:30;2.70;;;0.93;;
48859;SDS011;34679;51.436;-2.518;2023-07-31T00:23:56;0.95;;;0.93;;
48859;SDS011;34679;51.436;-2.518;2023-07-31T00:26:21;1.55;;;0.93;;
48859;SDS011;34679;51.436;-2.518;2023-07-31T00:28:47;5.60;;;1.10;;
48859;SDS011;34679;51.436;-2.518;2023-07-31T00:31:13;4.65;;;1.10;;
48859;SDS011;34679;51.436;-2.518;2023-07-31T00:33:38;4.55;;;0.80;;
48859;SDS011;34679;51.436;-2.518;2023-07-31T00:36:04;3.70;;;0.90;;
48859;SDS011;34679;51.436;-2.518;2023-07-31T00:38:30;4.20;;;1.20;;
48859;SDS011;34679;51.436;-2.518;2023-07-31T00:40:55;4.35;;;1.10;;
48859;SDS011;34679;51.436;-2.518;2023-07-31T00:43:21;2.13;;;1.17;;
48859;SDS011;34679;51.436;-2.518;2023-07-31T00:45:47;1.83;;;1.13;;
48859;SDS011;34679;51.436;-2.518;2023-07-31T00:48:13;4.70;;;1.42;;
48859;SDS011;34679;51.436;-2.518;2023-07-31T00:50:39;1.55;;;1.17;;
48859;SDS011;34679;51.436;-2.518;2023-07-31T00:53:05;3.70;;;1.08;;
48859;SDS011;34679;51.436;-2.518;2023-07-31T00:55:31;2.22;;;0.98;;
48859;SDS011;34679;51.436;-2.518;2023-07-31T00:57:57;4.45;;;1.08;;
48859;SDS011;34679;51.436;-2.518;2023-07-31T01:00:22;2.42;;;1.00;;
48859;SDS011;34679;51.436;-2.518;2023-07-31T01:02:49;1.50;;;0.90;;
48859;SDS011;34679;51.436;-2.518;2023-07-31T01:05:15;2.28;;;0.95;;
48859;SDS011;34679;51.436;-2.518;2023-07-31T01:07:52;3.95;;;1.10;;
48859;SDS011;34679;51.436;-2.518;2023-07-31T01:10:37;4.43;;;1.00;;
48859;SDS011;34679;51.436;-2.518;2023-07-31T01:13:10;1.83;;;0.70;;
48859;SDS011;34679;51.436;-2.518;2023-07-31T01:15:36;3.85;;;1.05;;
48859;SDS011;34679;51.436;-2.518;2023-07-31T01:18:02;3.58;;;0.95;;
48859;SDS011;34679;51.436;-2.518;2023-07-31T01:20:28;2.13;;;0.98;;
48859;SDS011;34679;51.436;-2.518;2023-07-31T01:25:54;2.58;;;0.90;;
48859;SDS011;34679;51.436;-2.518;2023-07-31T01:28:44;1.42;;;0.70;;
48859;SDS011;34679;51.436;-2.518;2023-07-31T01:31:18;2.08;;;0.82;;
48859;SDS011;34679;51.436;-2.518;2023-07-31T01:33:48;2.45;;;0.80;;
48859;SDS011;34679;51.436;-2.518;2023-07-31T01:36:15;5.07;;;0.80;;
48859;SDS011;34679;51.436;-2.518;2023-07-31T01:38:42;1.98;;;1.17;;
48859;SDS011;34679;51.436;-2.518;2023-07-31T01:41:07;1.27;;;0.60;;
48859;SDS011;34679;51.436;-2.518;2023-07-31T01:43:33;2.95;;;1.02;;
48859;SDS011;34679;51.436;-2.518;2023-07-31T01:45:59;2.15;;;0.90;;
48859;SDS011;34679;51.436;-2.518;2023-07-31T01:48:24;0.70;;;0.60;;
48859;SDS011;34679;51.436;-2.518;2023-07-31T01:50:50;2.33;;;0.77;;
48859;SDS011;34679;51.436;-2.518;2023-07-31T01:53:16;2.53;;;0.73;;
48859;SDS011;34679;51.436;-2.518;2023-07-31T01:55:42;3.33;;;0.80;;
48859;SDS011;34679;51.436;-2.518;2023-07-31T01:58:08;1.73;;;0.60;;
48859;SDS011;34679;51.436;-2.518;2023-07-31T02:00:34;3.20;;;0.70;;
48859;SDS011;34679;51.436;-2.518;2023-07-31T02:03:00;2.85;;;0.70;;
48859;SDS011;34679;51.436;-2.518;2023-07-31T02:05:25;3.53;;;0.70;;
48859;SDS011;34679;51.436;-2.518;2023-07-31T02:07:51;0.90;;;0.43;;
48859;SDS011;34679;51.436;-2.518;2023-07-31T02:10:17;0.70;;;0.70;;
48859;SDS011;34679;51.436;-2.518;2023-07-31T02:12:42;2.03;;;0.55;;
48859;SDS011;34679;51.436;-2.518;2023-07-31T02:15:08;1.38;;;0.50;;
48859;SDS011;34679;51.436;-2.518;2023-07-31T02:17:34;1.10;;;0.43;;
48859;SDS011;34679;51.436;-2.518;2023-07-31T02:20:00;0.63;;;0.40;;
48859;SDS011;34679;51.436;-2.518;2023-07-31T02:22:26;0.50;;;0.50;;
48859;SDS011;34679;51.436;-2.518;2023-07-31T02:24:51;0.93;;;0.35;;
48859;SDS011;34679;51.436;-2.518;2023-07-31T02:27:17;1.75;;;0.40;;
48859;SDS011;34679;51.436;-2.518;2023-07-31T02:29:43;1.30;;;0.35;;
48859;SDS011;34679;51.436;-2.518;2023-07-31T02:32:08;1.20;;;0.50;;
48859;SDS011;34679;51.436;-2.518;2023-07-31T02:34:34;2.33;;;0.70;;
48859;SDS011;34679;51.436;-2.518;2023-07-31T02:37:00;1.52;;;0.50;;
48859;SDS011;34679;51.436;-2.518;2023-07-31T02:39:26;3.05;;;0.70;;
48859;SDS011;34679;51.436;-2.518;2023-07-31T02:41:52;1.20;;;0.45;;
48859;SDS011;34679;51.436;-2.518;2023-07-31T02:44:18;8.48;;;1.75;;
48859;SDS011;34679;51.436;-2.518;2023-07-31T02:46:45;7.07;;;1.42;;
48859;SDS011;34679;51.436;-2.518;2023-07-31T02:49:11;16.60;;;2.78;;
48859;SDS011;34679;51.436;-2.518;2023-07-31T02:51:36;12.43;;;3.40;;
48859;SDS011;34679;51.436;-2.518;2023-07-31T02:54:02;14.40;;;3.47;;
48859;SDS011;34679;51.436;-2.518;2023-07-31T02:56:28;16.30;;;3.38;;
48859;SDS011;34679;51.436;-2.518;2023-07-31T02:58:53;15.93;;;4.35;;
48859;SDS011;34679;51.436;-2.518;2023-07-31T03:01:19;21.23;;;3.72;;
48859;SDS011;34679;51.436;-2.518;2023-07-31T03:03:45;22.35;;;4.07;;
48859;SDS011;34679;51.436;-2.518;2023-07-31T03:06:10;20.88;;;3.83;;
48859;SDS011;34679;51.436;-2.518;2023-07-31T03:08:36;22.98;;;4.15;;
48859;SDS011;34679;51.436;-2.518;2023-07-31T03:11:02;15.10;;;3.58;;
48859;SDS011;34679;51.436;-2.518;2023-07-31T03:13:27;12.73;;;3.25;;
48859;SDS011;34679;51.436;-2.518;2023-07-31T03:15:53;14.38;;;4.07;;
48859;SDS011;34679;51.436;-2.518;2023-07-31T03:18:19;20.27;;;4.95;;
48859;SDS011;34679;51.436;-2.518;2023-07-31T03:20:44;23.35;;;4.03;;
48859;SDS011;34679;51.436;-2.518;2023-07-31T03:23:10;20.35;;;3.90;;
48859;SDS011;34679;51.436;-2.518;2023-07-31T03:25:37;15.25;;;4.43;;
48859;SDS011;34679;51.436;-2.518;2023-07-31T03:28:02;18.00;;;4.97;;
48859;SDS011;34679;51.436;-2.518;2023-07-31T03:30:28;14.95;;;3.70;;
48859;SDS011;34679;51.436;-2.518;2023-07-31T03:32:54;10.38;;;3.58;;
48859;SDS011;34679;51.436;-2.518;2023-07-31T03:35:20;12.65;;;4.15;;
48859;SDS011;34679;51.436;-2.518;2023-07-31T03:37:45;13.07;;;3.75;;
48859;SDS011;34679;51.436;-2.518;2023-07-31T03:40:12;19.75;;;4.18;;
48859;SDS011;34679;51.436;-2.518;2023-07-31T03:42:37;15.77;;;4.10;;
48859;SDS011;34679;51.436;-2.518;2023-07-31T03:45:03;13.32;;;5.28;;
48859;SDS011;34679;51.436;-2.518;2023-07-31T03:47:29;13.60;;;4.70;;
48859;SDS011;34679;51.436;-2.518;2023-07-31T03:49:55;14.60;;;3.72;;
48859;SDS011;34679;51.436;-2.518;2023-07-31T03:52:21;14.95;;;4.28;;
48859;SDS011;34679;51.436;-2.518;2023-07-31T03:54:46;10.07;;;3.92;;
48859;SDS011;34679;51.436;-2.518;2023-07-31T03:57:12;16.15;;;4.45;;
48859;SDS011;34679;51.436;-2.518;2023-07-31T03:59:38;11.93;;;4.43;;
48859;SDS011;34679;51.436;-2.518;2023-07-31T04:02:04;20.73;;;4.60;;
48859;SDS011;34679;51.436;-2.518;2023-07-31T04:04:30;22.52;;;5.85;;
48859;SDS011;34679;51.436;-2.518;2023-07-31T04:06:56;23.67;;;5.72;;
48859;SDS011;34679;51.436;-2.518;2023-07-31T04:09:21;21.77;;;5.90;;
48859;SDS011;34679;51.436;-2.518;2023-07-31T04:11:47;19.90;;;5.50;;
48859;SDS011;34679;51.436;-2.518;2023-07-31T04:14:13;20.40;;;6.72;;
48859;SDS011;34679;51.436;-2.518;2023-07-31T04:16:38;19.80;;;5.30;;
48859;SDS011;34679;51.436;-2.518;2023-07-31T04:19:04;19.25;;;5.60;;
48859;SDS011;34679;51.436;-2.518;2023-07-31T04:21:30;17.45;;;5.72;;
48859;SDS011;34679;51.436;-2.518;2023-07-31T04:23:55;22.60;;;5.80;;
48859;SDS011;34679;51.436;-2.518;2023-07-31T04:26:21;17.55;;;5.28;;
48859;SDS011;34679;51.436;-2.518;2023-07-31T04:28:47;17.58;;;6.35;;
48859;SDS011;34679;51.436;-2.518;2023-07-31T04:31:13;17.33;;;7.25;;
48859;SDS011;34679;51.436;-2.518;2023-07-31T04:33:38;12.27;;;5.53;;
48859;SDS011;34679;51.436;-2.518;2023-07-31T04:36:04;14.85;;;5.68;;
48859;SDS011;34679;51.436;-2.518;2023-07-31T04:38:30;14.80;;;6.07;;
48859;SDS011;34679;51.436;-2.518;2023-07-31T04:40:56;17.75;;;6.78;;
48859;SDS011;34679;51.436;-2.518;2023-07-31T04:43:21;18.92;;;5.68;;
48859;SDS011;34679;51.436;-2.518;2023-07-31T04:45:47;21.02;;;6.68;;
48859;SDS011;34679;51.436;-2.518;2023-07-31T04:48:13;21.00;;;6.55;;
48859;SDS011;34679;51.436;-2.518;2023-07-31T04:50:39;14.45;;;5.93;;
48859;SDS011;34679;51.436;-2.518;2023-07-31T04:53:05;22.65;;;6.82;;
48859;SDS011;34679;51.436;-2.518;2023-07-31T04:55:31;14.48;;;5.25;;
48859;SDS011;34679;51.436;-2.518;2023-07-31T04:57:58;15.63;;;6.18;;
48859;SDS011;34679;51.436;-2.518;2023-07-31T05:00:24;16.92;;;6.63;;
48859;SDS011;34679;51.436;-2.518;2023-07-31T05:02:50;18.20;;;6.25;;
48859;SDS011;34679;51.436;-2.518;2023-07-31T05:05:15;17.33;;;6.38;;
48859;SDS011;34679;51.436;-2.518;2023-07-31T05:07:41;20.27;;;6.40;;
48859;SDS011;34679;51.436;-2.518;2023-07-31T05:10:07;18.13;;;5.72;;
48859;SDS011;34679;51.436;-2.518;2023-07-31T05:12:33;19.75;;;7.15;;
48859;SDS011;34679;51.436;-2.518;2023-07-31T05:14:58;17.70;;;6.45;;
48859;SDS011;34679;51.436;-2.518;2023-07-31T05:17:24;24.30;;;6.75;;
48859;SDS011;34679;51.436;-2.518;2023-07-31T05:19:49;13.93;;;5.70;;
48859;SDS011;34679;51.436;-2.518;2023-07-31T05:22:15;16.13;;;5.55;;
48859;SDS011;34679;51.436;-2.518;2023-07-31T05:24:41;14.50;;;6.18;;
48859;SDS011;34679;51.436;-2.518;2023-07-31T05:27:06;18.77;;;7.35;;
48859;SDS011;34679;51.436;-2.518;2023-07-31T05:29:32;17.77;;;5.85;;
48859;SDS011;34679;51.436;-2.518;2023-07-31T05:31:58;11.55;;;5.40;;
48859;SDS011;34679;51.436;-2.518;2023-07-31T05:34:23;14.93;;;6.95;;
48859;SDS011;34679;51.436;-2.518;2023-07-31T05:36:49;20.05;;;6.68;;
48859;SDS011;34679;51.436;-2.518;2023-07-31T05:39:15;19.05;;;6.38;;
48859;SDS011;34679;51.436;-2.518;2023-07-31T05:41:40;13.98;;;5.00;;
48859;SDS011;34679;51.436;-2.518;2023-07-31T05:44:06;11.95;;;5.93;;
48859;SDS011;34679;51.436;-2.518;2023-07-31T05:46:32;14.00;;;5.78;;
48859;SDS011;34679;51.436;-2.518;2023-07-31T05:48:58;13.80;;;5.05;;
48859;SDS011;34679;51.436;-2.518;2023-07-31T05:51:25;11.95;;;5.05;;
48859;SDS011;34679;51.436;-2.518;2023-07-31T05:53:52;12.15;;;5.15;;
48859;SDS011;34679;51.436;-2.518;2023-07-31T05:56:18;16.67;;;4.90;;
48859;SDS011;34679;51.436;-2.518;2023-07-31T05:58:44;14.90;;;5.20;;
48859;SDS011;34679;51.436;-2.518;2023-07-31T06:01:09;12.18;;;4.90;;
48859;SDS011;34679;51.436;-2.518;2023-07-31T06:03:35;13.95;;;4.93;;
48859;SDS011;34679;51.436;-2.518;2023-07-31T06:06:01;14.98;;;5.25;;
48859;SDS011;34679;51.436;-2.518;2023-07-31T06:08:26;12.95;;;4.78;;
48859;SDS011;34679;51.436;-2.518;2023-07-31T06:10:52;9.90;;;4.72;;
48859;SDS011;34679;51.436;-2.518;2023-07-31T06:13:18;13.50;;;4.88;;
48859;SDS011;34679;51.436;-2.518;2023-07-31T06:15:44;13.43;;;4.30;;
48859;SDS011;34679;51.436;-2.518;2023-07-31T06:18:10;11.07;;;3.97;;
48859;SDS011;34679;51.436;-2.518;2023-07-31T06:20:35;9.02;;;4.53;;
48859;SDS011;34679;51.436;-2.518;2023-07-31T06:23:01;12.10;;;4.70;;
48859;SDS011;34679;51.436;-2.518;2023-07-31T06:25:27;11.13;;;3.67;;
48859;SDS011;34679;51.436;-2.518;2023-07-31T06:27:53;6.30;;;3.10;;
48859;SDS011;34679;51.436;-2.518;2023-07-31T06:30:18;6.05;;;3.20;;
48859;SDS011;34679;51.436;-2.518;2023-07-31T06:32:44;10.07;;;3.85;;
48859;SDS011;34679;51.436;-2.518;2023-07-31T06:35:10;9.48;;;3.08;;
48859;SDS011;34679;51.436;-2.518;2023-07-31T06:37:35;11.55;;;4.38;;
48859;SDS011;34679;51.436;-2.518;2023-07-31T06:40:02;12.45;;;3.63;;
48859;SDS011;34679;51.436;-2.518;2023-07-31T06:42:30;11.70;;;3.33;;
48859;SDS011;34679;51.436;-2.518;2023-07-31T06:44:56;10.52;;;3.83;;
48859;SDS011;34679;51.436;-2.518;2023-07-31T06:47:21;6.75;;;3.90;;
48859;SDS011;34679;51.436;-2.518;2023-07-31T06:49:47;8.75;;;3.13;;
48859;SDS011;34679;51.436;-2.518;2023-07-31T06:52:12;9.32;;;3.05;;
48859;SDS011;34679;51.436;-2.518;2023-07-31T06:54:38;11.00;;;3.70;;
48859;SDS011;34679;51.436;-2.518;2023-07-31T06:57:04;10.00;;;3.15;;
48859;SDS011;34679;51.436;-2.518;2023-07-31T06:59:30;11.05;;;3.65;;
48859;SDS011;34679;51.436;-2.518;2023-07-31T07:01:55;13.20;;;3.42;;
48859;SDS011;34679;51.436;-2.518;2023-07-31T07:04:21;5.95;;;2.60;;
48859;SDS011;34679;51.436;-2.518;2023-07-31T07:06:47;10.40;;;2.65;;
48859;SDS011;34679;51.436;-2.518;2023-07-31T07:09:12;5.70;;;2.50;;
48859;SDS011;34679;51.436;-2.518;2023-07-31T07:11:38;5.25;;;3.05;;
48859;SDS011;34679;51.436;-2.518;2023-07-31T07:14:04;6.65;;;2.53;;
48859;SDS011;34679;51.436;-2.518;2023-07-31T07:16:29;6.55;;;2.85;;
48859;SDS011;34679;51.436;-2.518;2023-07-31T07:18:55;7.40;;;3.10;;
48859;SDS011;34679;51.436;-2.518;2023-07-31T07:21:21;8.25;;;2.83;;
48859;SDS011;34679;51.436;-2.518;2023-07-31T07:23:46;9.50;;;2.67;;
48859;SDS011;34679;51.436;-2.518;2023-07-31T07:26:12;7.32;;;2.42;;
48859;SDS011;34679;51.436;-2.518;2023-07-31T07:28:38;7.38;;;2.58;;
48859;SDS011;34679;51.436;-2.518;2023-07-31T07:31:03;6.57;;;2.00;;
48859;SDS011;34679;51.436;-2.518;2023-07-31T07:33:29;10.07;;;2.92;;
48859;SDS011;34679;51.436;-2.518;2023-07-31T07:35:55;4.85;;;1.80;;
48859;SDS011;34679;51.436;-2.518;2023-07-31T07:38:30;5.47;;;2.38;;
48859;SDS011;34679;51.436;-2.518;2023-07-31T07:40:59;4.15;;;2.20;;
48859;SDS011;34679;51.436;-2.518;2023-07-31T07:43:25;6.30;;;1.67;;
48859;SDS011;34679;51.436;-2.518;2023-07-31T07:45:56;2.10;;;1.63;;
48859;SDS011;34679;51.436;-2.518;2023-07-31T08:07:43;4.38;;;2.22;;
48859;SDS011;34679;51.436;-2.518;2023-07-31T08:10:09;5.00;;;2.30;;
48859;SDS011;34679;51.436;-2.518;2023-07-31T08:12:34;6.25;;;2.17;;
48859;SDS011;34679;51.436;-2.518;2023-07-31T08:15:00;6.20;;;1.63;;
48859;SDS011;34679;51.436;-2.518;2023-07-31T08:17:28;4.35;;;1.67;;
48859;SDS011;34679;51.436;-2.518;2023-07-31T08:19:54;6.90;;;1.60;;
48859;SDS011;34679;51.436;-2.518;2023-07-31T08:22:26;4.03;;;1.80;;
48859;SDS011;34679;51.436;-2.518;2023-07-31T08:24:52;5.78;;;1.90;;
48859;SDS011;34679;51.436;-2.518;2023-07-31T08:27:18;3.20;;;1.83;;
48859;SDS011;34679;51.436;-2.518;2023-07-31T08:29:43;9.40;;;1.90;;
48859;SDS011;34679;51.436;-2.518;2023-07-31T08:32:09;3.53;;;1.60;;
48859;SDS011;34679;51.436;-2.518;2023-07-31T08:34:38;5.95;;;1.67;;
48859;SDS011;34679;51.436;-2.518;2023-07-31T08:37:03;4.05;;;2.10;;
48859;SDS011;34679;51.436;-2.518;2023-07-31T08:39:29;7.47;;;2.53;;
48859;SDS011;34679;51.436;-2.518;2023-07-31T08:42:01;6.22;;;2.05;;
48859;SDS011;34679;51.436;-2.518;2023-07-31T08:44:30;11.65;;;2.85;;
48859;SDS011;34679;51.436;-2.518;2023-07-31T08:46:59;6.25;;;2.08;;
48859;SDS011;34679;51.436;-2.518;2023-07-31T08:49:29;6.28;;;2.53;;
48859;SDS011;34679;51.436;-2.518;2023-07-31T08:51:58;8.52;;;2.33;;
48859;SDS011;34679;51.436;-2.518;2023-07-31T08:54:27;10.57;;;2.77;;
48859;SDS011;34679;51.436;-2.518;2023-07-31T08:56:56;11.00;;;3.65;;
48859;SDS011;34679;51.436;-2.518;2023-07-31T08:59:28;24.00;;;4.73;;
48859;SDS011;34679;51.436;-2.518;2023-07-31T09:01:57;11.65;;;3.15;;
48859;SDS011;34679;51.436;-2.518;2023-07-31T09:04:26;9.93;;;3.47;;
48859;SDS011;34679;51.436;-2.518;2023-07-31T09:06:53;14.65;;;3.50;;
48859;SDS011;34679;51.436;-2.518;2023-07-31T09:09:25;11.27;;;3.28;;
48859;SDS011;34679;51.436;-2.518;2023-07-31T09:11:50;17.85;;;4.95;;
48859;SDS011;34679;51.436;-2.518;2023-07-31T09:14:17;17.38;;;4.10;;
48859;SDS011;34679;51.436;-2.518;2023-07-31T09:16:53;24.90;;;5.75;;
48859;SDS011;34679;51.436;-2.518;2023-07-31T09:19:24;19.50;;;5.97;;
48859;SDS011;34679;51.436;-2.518;2023-07-31T09:22:02;22.48;;;5.75;;
48859;SDS011;34679;51.436;-2.518;2023-07-31T09:24:29;24.13;;;6.10;;
48859;SDS011;34679;51.436;-2.518;2023-07-31T09:26:57;23.70;;;6.30;;
48859;SDS011;34679;51.436;-2.518;2023-07-31T09:29:24;24.95;;;6.45;;
48859;SDS011;34679;51.436;-2.518;2023-07-31T09:31:51;17.63;;;5.25;;
48859;SDS011;34679;51.436;-2.518;2023-07-31T09:34:18;23.30;;;7.05;;
48859;SDS011;34679;51.436;-2.518;2023-07-31T09:36:46;21.70;;;6.32;;
48859;SDS011;34679;51.436;-2.518;2023-07-31T09:39:14;22.52;;;6.13;;
48859;SDS011;34679;51.436;-2.518;2023-07-31T09:41:47;23.23;;;6.38;;
48859;SDS011;34679;51.436;-2.518;2023-07-31T09:44:18;26.65;;;7.15;;
48859;SDS011;34679;51.436;-2.518;2023-07-31T09:46:45;22.08;;;6.50;;
48859;SDS011;34679;51.436;-2.518;2023-07-31T09:49:11;28.45;;;7.72;;
48859;SDS011;34679;51.436;-2.518;2023-07-31T09:51:38;21.90;;;6.88;;
48859;SDS011;34679;51.436;-2.518;2023-07-31T09:54:12;20.58;;;6.03;;
48859;SDS011;34679;51.436;-2.518;2023-07-31T09:56:47;25.92;;;6.25;;
48859;SDS011;34679;51.436;-2.518;2023-07-31T09:59:17;20.80;;;6.68;;
48859;SDS011;34679;51.436;-2.518;2023-07-31T10:01:44;23.80;;;6.60;;
48859;SDS011;34679;51.436;-2.518;2023-07-31T10:04:11;28.50;;;6.72;;
48859;SDS011;34679;51.436;-2.518;2023-07-31T10:06:38;24.88;;;6.32;;
48859;SDS011;34679;51.436;-2.518;2023-07-31T10:09:07;20.52;;;6.50;;
48859;SDS011;34679;51.436;-2.518;2023-07-31T10:11:42;23.27;;;6.43;;
48859;SDS011;34679;51.436;-2.518;2023-07-31T10:14:21;23.92;;;6.22;;
48859;SDS011;34679;51.436;-2.518;2023-07-31T10:16:49;19.20;;;5.78;;
48859;SDS011;34679;51.436;-2.518;2023-07-31T10:19:15;19.27;;;5.72;;
48859;SDS011;34679;51.436;-2.518;2023-07-31T10:21:43;22.40;;;7.10;;
48859;SDS011;34679;51.436;-2.518;2023-07-31T10:24:09;24.27;;;6.53;;
48859;SDS011;34679;51.436;-2.518;2023-07-31T10:26:37;21.95;;;6.00;;
48859;SDS011;34679;51.436;-2.518;2023-07-31T10:29:04;25.67;;;6.50;;
48859;SDS011;34679;51.436;-2.518;2023-07-31T10:31:31;21.92;;;5.72;;
48859;SDS011;34679;51.436;-2.518;2023-07-31T10:33:59;26.38;;;5.68;;
48859;SDS011;34679;51.436;-2.518;2023-07-31T10:36:25;23.08;;;6.00;;
48859;SDS011;34679;51.436;-2.518;2023-07-31T10:38:52;23.35;;;5.88;;
48859;SDS011;34679;51.436;-2.518;2023-07-31T10:41:17;25.30;;;6.00;;
48859;SDS011;34679;51.436;-2.518;2023-07-31T10:43:45;21.42;;;5.78;;
48859;SDS011;34679;51.436;-2.518;2023-07-31T10:46:12;24.60;;;7.00;;
48859;SDS011;34679;51.436;-2.518;2023-07-31T10:48:40;19.30;;;5.55;;
48859;SDS011;34679;51.436;-2.518;2023-07-31T10:51:15;23.48;;;6.35;;
48859;SDS011;34679;51.436;-2.518;2023-07-31T10:53:45;17.27;;;5.82;;
48859;SDS011;34679;51.436;-2.518;2023-07-31T10:56:11;22.55;;;5.80;;
48859;SDS011;34679;51.436;-2.518;2023-07-31T10:58:39;27.48;;;6.88;;
48859;SDS011;34679;51.436;-2.518;2023-07-31T11:01:05;23.60;;;5.75;;
48859;SDS011;34679;51.436;-2.518;2023-07-31T11:03:41;23.98;;;5.97;;
48859;SDS011;34679;51.436;-2.518;2023-07-31T11:06:12;18.10;;;5.90;;
48859;SDS011;34679;51.436;-2.518;2023-07-31T11:08:42;21.88;;;6.47;;
48859;SDS011;34679;51.436;-2.518;2023-07-31T11:11:18;23.95;;;6.22;;
48859;SDS011;34679;51.436;-2.518;2023-07-31T11:16:21;20.55;;;5.43;;
48859;SDS011;34679;51.436;-2.518;2023-07-31T11:18:49;23.25;;;5.70;;
48859;SDS011;34679;51.436;-2.518;2023-07-31T11:21:20;18.48;;;6.05;;
48859;SDS011;34679;51.436;-2.518;2023-07-31T11:23:51;19.50;;;5.82;;
48859;SDS011;34679;51.436;-2.518;2023-07-31T11:26:18;22.27;;;6.15;;
48859;SDS011;34679;51.436;-2.518;2023-07-31T11:28:46;19.90;;;6.32;;
48859;SDS011;34679;51.436;-2.518;2023-07-31T11:31:13;20.90;;;5.90;;
48859;SDS011;34679;51.436;-2.518;2023-07-31T11:33:39;22.52;;;5.70;;
48859;SDS011;34679;51.436;-2.518;2023-07-31T11:36:04;21.63;;;7.05;;
48859;SDS011;34679;51.436;-2.518;2023-07-31T11:38:31;18.25;;;5.88;;
48859;SDS011;34679;51.436;-2.518;2023-07-31T11:40:59;28.40;;;6.78;;
48859;SDS011;34679;51.436;-2.518;2023-07-31T11:43:30;26.10;;;8.18;;
48859;SDS011;34679;51.436;-2.518;2023-07-31T11:46:00;22.70;;;6.55;;
48859;SDS011;34679;51.436;-2.518;2023-07-31T11:48:31;21.25;;;5.72;;
48859;SDS011;34679;51.436;-2.518;2023-07-31T11:51:03;17.92;;;6.00;;
48859;SDS011;34679;51.436;-2.518;2023-07-31T11:53:38;21.63;;;6.10;;
48859;SDS011;34679;51.436;-2.518;2023-07-31T11:56:11;20.15;;;6.13;;
48859;SDS011;34679;51.436;-2.518;2023-07-31T11:58:40;20.63;;;6.18;;
48859;SDS011;34679;51.436;-2.518;2023-07-31T12:01:08;20.48;;;5.65;;
48859;SDS011;34679;51.436;-2.518;2023-07-31T12:03:34;18.88;;;5.05;;
48859;SDS011;34679;51.436;-2.518;2023-07-31T12:06:00;23.40;;;6.22;;
48859;SDS011;34679;51.436;-2.518;2023-07-31T12:08:26;23.17;;;4.95;;
48859;SDS011;34679;51.436;-2.518;2023-07-31T12:10:52;15.68;;;4.90;;
48859;SDS011;34679;51.436;-2.518;2023-07-31T12:13:22;20.92;;;5.82;;
48859;SDS011;34679;51.436;-2.518;2023-07-31T12:15:53;17.73;;;5.20;;
48859;SDS011;34679;51.436;-2.518;2023-07-31T12:18:24;19.13;;;5.68;;
48859;SDS011;34679;51.436;-2.518;2023-07-31T12:20:56;16.52;;;5.35;;
48859;SDS011;34679;51.436;-2.518;2023-07-31T12:23:24;15.45;;;5.95;;
48859;SDS011;34679;51.436;-2.518;2023-07-31T12:26:07;17.60;;;5.72;;
48859;SDS011;34679;51.436;-2.518;2023-07-31T12:31:13;16.02;;;5.85;;
48859;SDS011;34679;51.436;-2.518;2023-07-31T12:33:40;15.65;;;6.05;;
48859;SDS011;34679;51.436;-2.518;2023-07-31T12:36:07;16.80;;;5.50;;
48859;SDS011;34679;51.436;-2.518;2023-07-31T12:38:38;22.80;;;6.05;;
48859;SDS011;34679;51.436;-2.518;2023-07-31T12:41:04;16.48;;;6.43;;
48859;SDS011;34679;51.436;-2.518;2023-07-31T12:43:31;16.55;;;5.55;;
48859;SDS011;34679;51.436;-2.518;2023-07-31T12:45:58;17.20;;;5.75;;
48859;SDS011;34679;51.436;-2.518;2023-07-31T12:48:25;12.75;;;5.25;;
48859;SDS011;34679;51.436;-2.518;2023-07-31T12:50:50;17.52;;;4.93;;
48859;SDS011;34679;51.436;-2.518;2023-07-31T12:53:16;18.63;;;5.63;;
48859;SDS011;34679;51.436;-2.518;2023-07-31T12:55:42;16.58;;;5.55;;
48859;SDS011;34679;51.436;-2.518;2023-07-31T12:58:07;15.25;;;5.88;;
48859;SDS011;34679;51.436;-2.518;2023-07-31T13:00:33;17.52;;;5.80;;
48859;SDS011;34679;51.436;-2.518;2023-07-31T13:02:59;17.90;;;5.45;;
48859;SDS011;34679;51.436;-2.518;2023-07-31T13:05:26;16.48;;;5.68;;
48859;SDS011;34679;51.436;-2.518;2023-07-31T13:07:52;12.88;;;5.07;;
48859;SDS011;34679;51.436;-2.518;2023-07-31T13:10:18;21.27;;;5.35;;
48859;SDS011;34679;51.436;-2.518;2023-07-31T13:12:44;18.58;;;6.53;;
48859;SDS011;34679;51.436;-2.518;2023-07-31T13:15:10;11.88;;;5.05;;
48859;SDS011;34679;51.436;-2.518;2023-07-31T13:17:37;14.93;;;5.60;;
48859;SDS011;34679;51.436;-2.518;2023-07-31T13:20:02;16.55;;;5.72;;
48859;SDS011;34679;51.436;-2.518;2023-07-31T13:22:29;11.82;;;5.07;;
48859;SDS011;34679;51.436;-2.518;2023-07-31T13:24:54;13.80;;;5.25;;
48859;SDS011;34679;51.436;-2.518;2023-07-31T13:27:20;16.20;;;4.80;;
48859;SDS011;34679;51.436;-2.518;2023-07-31T13:29:50;19.15;;;4.97;;
48859;SDS011;34679;51.436;-2.518;2023-07-31T13:32:17;14.18;;;5.05;;
48859;SDS011;34679;51.436;-2.518;2023-07-31T13:34:43;17.20;;;7.07;;
48859;SDS011;34679;51.436;-2.518;2023-07-31T13:37:09;19.15;;;5.53;;
48859;SDS011;34679;51.436;-2.518;2023-07-31T13:39:35;19.40;;;6.93;;
48859;SDS011;34679;51.436;-2.518;2023-07-31T13:42:04;13.43;;;4.60;;
48859;SDS011;34679;51.436;-2.518;2023-07-31T13:44:40;13.82;;;5.43;;
48859;SDS011;34679;51.436;-2.518;2023-07-31T13:47:06;13.73;;;5.28;;
48859;SDS011;34679;51.436;-2.518;2023-07-31T13:49:33;15.23;;;5.72;;
48859;SDS011;34679;51.436;-2.518;2023-07-31T13:51:59;11.93;;;5.43;;
48859;SDS011;34679;51.436;-2.518;2023-07-31T13:54:25;13.98;;;4.70;;
48859;SDS011;34679;51.436;-2.518;2023-07-31T13:56:51;20.23;;;5.05;;
48859;SDS011;34679;51.436;-2.518;2023-07-31T13:59:18;18.10;;;4.60;;
48859;SDS011;34679;51.436;-2.518;2023-07-31T14:01:44;11.35;;;4.88;;
48859;SDS011;34679;51.436;-2.518;2023-07-31T14:04:10;11.73;;;4.38;;
48859;SDS011;34679;51.436;-2.518;2023-07-31T14:06:36;13.85;;;5.78;;
48859;SDS011;34679;51.436;-2.518;2023-07-31T14:09:02;20.98;;;6.43;;
48859;SDS011;34679;51.436;-2.518;2023-07-31T14:11:28;12.55;;;4.82;;
48859;SDS011;34679;51.436;-2.518;2023-07-31T14:13:54;11.43;;;4.88;;
48859;SDS011;34679;51.436;-2.518;2023-07-31T14:16:21;15.68;;;4.63;;
48859;SDS011;34679;51.436;-2.518;2023-07-31T14:18:47;12.73;;;4.47;;
48859;SDS011;34679;51.436;-2.518;2023-07-31T14:21:13;11.60;;;4.85;;
48859;SDS011;34679;51.436;-2.518;2023-07-31T14:23:39;9.70;;;4.40;;
48859;SDS011;34679;51.436;-2.518;2023-07-31T14:26:05;12.57;;;4.47;;
48859;SDS011;34679;51.436;-2.518;2023-07-31T14:28:31;13.13;;;3.90;;
48859;SDS011;34679;51.436;-2.518;2023-07-31T14:30:56;11.25;;;4.57;;
48859;SDS011;34679;51.436;-2.518;2023-07-31T14:33:22;11.38;;;4.70;;
48859;SDS011;34679;51.436;-2.518;2023-07-31T14:35:48;5.78;;;3.17;;
48859;SDS011;34679;51.436;-2.518;2023-07-31T14:38:14;5.10;;;3.10;;
48859;SDS011;34679;51.436;-2.518;2023-07-31T14:40:40;8.52;;;3.60;;
48859;SDS011;34679;51.436;-2.518;2023-07-31T14:43:06;5.78;;;3.00;;
48859;SDS011;34679;51.436;-2.518;2023-07-31T14:45:32;8.57;;;3.28;;
48859;SDS011;34679;51.436;-2.518;2023-07-31T14:47:58;7.97;;;3.80;;
48859;SDS011;34679;51.436;-2.518;2023-07-31T14:50:23;9.63;;;3.53;;
48859;SDS011;34679;51.436;-2.518;2023-07-31T14:52:50;12.15;;;3.95;;